sensor_id;sensor_type;location;lat;lon;timestamp;P1;durP1;ratioP1;P2;durP2;ratioP2
42590;SDS011;28218;53.342;-6.216;2024-01-15T00:01:49;14.65;;;3.97;;
42590;SDS011;28218;53.342;-6.216;2024-01-15T00:04:17;15.02;;;4.18;;
42590;SDS011;28218;53.342;-6.216;2024-01-15T00:06:47;11.23;;;4.10;;
42590;SDS011;28218;53.342;-6.216;2024-01-15T00:09:16;10.07;;;2.90;;
42590;SDS011;28218;53.342;-6.216;2024-01-15T00:11:44;11.00;;;3.05;;
42590;SDS011;28218;53.342;-6.216;2024-01-15T00:14:13;15.73;;;3.72;;
42590;SDS011;28218;53.342;-6.216;2024-01-15T00:16:46;12.02;;;2.83;;
42590;SDS011;28218;53.342;-6.216;2024-01-15T00:19:17;14.27;;;3.92;;
42590;SDS011;28218;53.342;-6.216;2024-01-15T00:21:47;8.77;;;3.42;;
42590;SDS011;28218;53.342;-6.216;2024-01-15T00:24:16;9.00;;;3.17;;
42590;SDS011;28218;53.342;-6.216;2024-01-15T00:26:44;14.43;;;3.20;;
42590;SDS011;28218;53.342;-6.216;2024-01-15T00:29:12;5.70;;;2.90;;
42590;SDS011;28218;53.342;-6.216;2024-01-15T00:31:41;11.73;;;3.05;;
42590;SDS011;28218;53.342;-6.216;2024-01-15T00:34:09;9.57;;;3.33;;
42590;SDS011;28218;53.342;-6.216;2024-01-15T00:36:38;13.02;;;2.95;;
42590;SDS011;28218;53.342;-6.216;2024-01-15T00:39:08;11.70;;;3.10;;
42590;SDS011;28218;53.342;-6.216;2024-01-15T00:41:37;12.07;;;4.00;;
42590;SDS011;28218;53.342;-6.216;2024-01-15T00:44:05;10.73;;;2.30;;
42590;SDS011;28218;53.342;-6.216;2024-01-15T00:46:41;6.63;;;2.58;;
42590;SDS011;28218;53.342;-6.216;2024-01-15T00:49:10;9.85;;;3.35;;
42590;SDS011;28218;53.342;-6.216;2024-01-15T00:51:40;15.60;;;2.97;;
42590;SDS011;28218;53.342;-6.216;2024-01-15T00:54:10;13.45;;;3.50;;
42590;SDS011;28218;53.342;-6.216;2024-01-15T00:56:39;6.32;;;2.58;;
42590;SDS011;28218;53.342;-6.216;2024-01-15T00:59:07;9.93;;;2.78;;
42590;SDS011;28218;53.342;-6.216;2024-01-15T01:01:36;12.23;;;3.17;;
42590;SDS011;28218;53.342;-6.216;2024-01-15T01:04:09;17.48;;;4.05;;
42590;SDS011;28218;53.342;-6.216;2024-01-15T01:06:38;10.60;;;3.08;;
42590;SDS011;28218;53.342;-6.216;2024-01-15T01:09:07;10.95;;;2.53;;
42590;SDS011;28218;53.342;-6.216;2024-01-15T01:11:36;11.18;;;3.58;;
42590;SDS011;28218;53.342;-6.216;2024-01-15T01:14:05;8.60;;;2.78;;
42590;SDS011;28218;53.342;-6.216;2024-01-15T01:16:33;7.88;;;2.85;;
42590;SDS011;28218;53.342;-6.216;2024-01-15T01:19:06;7.75;;;2.33;;
42590;SDS011;28218;53.342;-6.216;2024-01-15T01:21:35;8.95;;;2.60;;
42590;SDS011;28218;53.342;-6.216;2024-01-15T01:24:03;7.85;;;2.40;;
42590;SDS011;28218;53.342;-6.216;2024-01-15T01:26:32;5.63;;;2.50;;
42590;SDS011;28218;53.342;-6.216;2024-01-15T01:29:02;7.72;;;2.58;;
42590;SDS011;28218;53.342;-6.216;2024-01-15T01:31:30;8.25;;;2.25;;
42590;SDS011;28218;53.342;-6.216;2024-01-15T01:33:59;10.30;;;2.30;;
42590;SDS011;28218;53.342;-6.216;2024-01-15T01:36:31;8.27;;;2.45;;
42590;SDS011;28218;53.342;-6.216;2024-01-15T01:38:59;9.77;;;2.30;;
42590;SDS011;28218;53.342;-6.216;2024-01-15T01:41:28;7.28;;;2.58;;
42590;SDS011;28218;53.342;-6.216;2024-01-15T01:43:56;8.00;;;2.30;;
42590;SDS011;28218;53.342;-6.216;2024-01-15T01:46:26;8.32;;;2.38;;
42590;SDS011;28218;53.342;-6.216;2024-01-15T01:48:55;7.50;;;2.15;;
42590;SDS011;28218;53.342;-6.216;2024-01-15T01:51:24;4.72;;;2.10;;
42590;SDS011;28218;53.342;-6.216;2024-01-15T01:53:53;10.23;;;1.95;;
42590;SDS011;28218;53.342;-6.216;2024-01-15T01:56:21;9.35;;;1.98;;
42590;SDS011;28218;53.342;-6.216;2024-01-15T01:58:49;6.65;;;2.45;;
42590;SDS011;28218;53.342;-6.216;2024-01-15T02:01:17;8.88;;;2.38;;
42590;SDS011;28218;53.342;-6.216;2024-01-15T02:03:48;5.20;;;1.85;;
42590;SDS011;28218;53.342;-6.216;2024-01-15T02:06:16;5.05;;;2.58;;
42590;SDS011;28218;53.342;-6.216;2024-01-15T02:08:45;9.07;;;1.95;;
42590;SDS011;28218;53.342;-6.216;2024-01-15T02:11:14;8.57;;;2.55;;
42590;SDS011;28218;53.342;-6.216;2024-01-15T02:13:42;6.70;;;1.90;;
42590;SDS011;28218;53.342;-6.216;2024-01-15T02:16:10;4.78;;;1.45;;
42590;SDS011;28218;53.342;-6.216;2024-01-15T02:18:39;4.20;;;1.50;;
42590;SDS011;28218;53.342;-6.216;2024-01-15T02:21:10;4.72;;;1.95;;
42590;SDS011;28218;53.342;-6.216;2024-01-15T02:23:40;8.88;;;2.85;;
42590;SDS011;28218;53.342;-6.216;2024-01-15T02:26:08;6.18;;;2.55;;
42590;SDS011;28218;53.342;-6.216;2024-01-15T02:28:36;6.68;;;1.70;;
42590;SDS011;28218;53.342;-6.216;2024-01-15T02:31:05;8.55;;;2.15;;
42590;SDS011;28218;53.342;-6.216;2024-01-15T02:33:33;8.32;;;1.85;;
42590;SDS011;28218;53.342;-6.216;2024-01-15T02:36:02;8.20;;;1.63;;
42590;SDS011;28218;53.342;-6.216;2024-01-15T02:38:31;9.32;;;1.63;;
42590;SDS011;28218;53.342;-6.216;2024-01-15T02:41:00;16.42;;;3.72;;
42590;SDS011;28218;53.342;-6.216;2024-01-15T02:43:28;5.35;;;1.67;;
42590;SDS011;28218;53.342;-6.216;2024-01-15T02:45:57;7.50;;;2.17;;
42590;SDS011;28218;53.342;-6.216;2024-01-15T02:48:25;12.77;;;2.47;;
42590;SDS011;28218;53.342;-6.216;2024-01-15T02:50:54;6.45;;;1.70;;
42590;SDS011;28218;53.342;-6.216;2024-01-15T02:53:22;6.60;;;1.48;;
42590;SDS011;28218;53.342;-6.216;2024-01-15T02:55:50;8.10;;;1.65;;
42590;SDS011;28218;53.342;-6.216;2024-01-15T02:58:20;5.97;;;1.38;;
42590;SDS011;28218;53.342;-6.216;2024-01-15T03:00:48;3.15;;;1.80;;
42590;SDS011;28218;53.342;-6.216;2024-01-15T03:03:17;4.97;;;1.42;;
42590;SDS011;28218;53.342;-6.216;2024-01-15T03:05:45;5.97;;;1.63;;
42590;SDS011;28218;53.342;-6.216;2024-01-15T03:08:14;4.85;;;1.77;;
42590;SDS011;28218;53.342;-6.216;2024-01-15T03:10:42;6.65;;;1.30;;
42590;SDS011;28218;53.342;-6.216;2024-01-15T03:13:11;9.35;;;2.00;;
42590;SDS011;28218;53.342;-6.216;2024-01-15T03:15:40;7.53;;;1.80;;
42590;SDS011;28218;53.342;-6.216;2024-01-15T03:18:09;5.07;;;1.92;;
42590;SDS011;28218;53.342;-6.216;2024-01-15T03:20:37;11.98;;;2.67;;
42590;SDS011;28218;53.342;-6.216;2024-01-15T03:23:05;4.68;;;1.70;;
42590;SDS011;28218;53.342;-6.216;2024-01-15T03:25:33;7.97;;;1.70;;
42590;SDS011;28218;53.342;-6.216;2024-01-15T03:28:02;4.82;;;1.70;;
42590;SDS011;28218;53.342;-6.216;2024-01-15T03:30:30;8.77;;;1.70;;
42590;SDS011;28218;53.342;-6.216;2024-01-15T03:33:00;3.17;;;1.23;;
42590;SDS011;28218;53.342;-6.216;2024-01-15T03:35:29;10.60;;;3.15;;
42590;SDS011;28218;53.342;-6.216;2024-01-15T03:37:57;2.78;;;1.20;;
42590;SDS011;28218;53.342;-6.216;2024-01-15T03:40:25;4.95;;;1.65;;
42590;SDS011;28218;53.342;-6.216;2024-01-15T03:42:54;8.55;;;2.28;;
42590;SDS011;28218;53.342;-6.216;2024-01-15T03:45:22;8.57;;;2.13;;
42590;SDS011;28218;53.342;-6.216;2024-01-15T03:47:51;6.63;;;1.50;;
42590;SDS011;28218;53.342;-6.216;2024-01-15T03:50:21;6.47;;;1.40;;
42590;SDS011;28218;53.342;-6.216;2024-01-15T03:52:49;9.65;;;1.65;;
42590;SDS011;28218;53.342;-6.216;2024-01-15T03:55:18;2.33;;;1.30;;
42590;SDS011;28218;53.342;-6.216;2024-01-15T03:57:46;9.32;;;1.52;;
42590;SDS011;28218;53.342;-6.216;2024-01-15T04:00:14;6.63;;;3.13;;
42590;SDS011;28218;53.342;-6.216;2024-01-15T04:02:44;5.72;;;1.42;;
42590;SDS011;28218;53.342;-6.216;2024-01-15T04:05:12;7.25;;;1.48;;
42590;SDS011;28218;53.342;-6.216;2024-01-15T04:07:42;7.35;;;1.88;;
42590;SDS011;28218;53.342;-6.216;2024-01-15T04:10:10;5.00;;;1.23;;
42590;SDS011;28218;53.342;-6.216;2024-01-15T04:12:39;6.57;;;1.25;;
42590;SDS011;28218;53.342;-6.216;2024-01-15T04:15:07;7.75;;;1.27;;
42590;SDS011;28218;53.342;-6.216;2024-01-15T04:17:36;8.98;;;1.55;;
42590;SDS011;28218;53.342;-6.216;2024-01-15T04:20:05;8.80;;;1.65;;
42590;SDS011;28218;53.342;-6.216;2024-01-15T04:22:34;9.90;;;1.30;;
42590;SDS011;28218;53.342;-6.216;2024-01-15T04:25:05;7.20;;;1.73;;
42590;SDS011;28218;53.342;-6.216;2024-01-15T04:27:37;3.70;;;1.13;;
42590;SDS011;28218;53.342;-6.216;2024-01-15T04:30:06;1.92;;;1.05;;
42590;SDS011;28218;53.342;-6.216;2024-01-15T04:32:35;4.07;;;1.00;;
42590;SDS011;28218;53.342;-6.216;2024-01-15T04:35:04;5.45;;;1.30;;
42590;SDS011;28218;53.342;-6.216;2024-01-15T04:37:32;7.72;;;1.10;;
42590;SDS011;28218;53.342;-6.216;2024-01-15T04:40:01;6.50;;;1.55;;
42590;SDS011;28218;53.342;-6.216;2024-01-15T04:42:32;4.43;;;1.55;;
42590;SDS011;28218;53.342;-6.216;2024-01-15T04:45:00;5.88;;;1.45;;
42590;SDS011;28218;53.342;-6.216;2024-01-15T04:47:29;5.18;;;1.20;;
42590;SDS011;28218;53.342;-6.216;2024-01-15T04:49:57;6.03;;;1.73;;
42590;SDS011;28218;53.342;-6.216;2024-01-15T04:52:25;9.88;;;1.42;;
42590;SDS011;28218;53.342;-6.216;2024-01-15T04:54:57;4.18;;;1.10;;
42590;SDS011;28218;53.342;-6.216;2024-01-15T04:57:25;4.38;;;2.25;;
42590;SDS011;28218;53.342;-6.216;2024-01-15T04:59:55;4.20;;;1.10;;
42590;SDS011;28218;53.342;-6.216;2024-01-15T05:02:23;9.25;;;1.38;;
42590;SDS011;28218;53.342;-6.216;2024-01-15T05:04:52;4.70;;;1.17;;
42590;SDS011;28218;53.342;-6.216;2024-01-15T05:07:20;6.28;;;1.40;;
42590;SDS011;28218;53.342;-6.216;2024-01-15T05:09:48;4.25;;;1.20;;
42590;SDS011;28218;53.342;-6.216;2024-01-15T05:12:16;6.93;;;1.40;;
42590;SDS011;28218;53.342;-6.216;2024-01-15T05:14:45;5.53;;;1.10;;
42590;SDS011;28218;53.342;-6.216;2024-01-15T05:17:15;4.80;;;1.35;;
42590;SDS011;28218;53.342;-6.216;2024-01-15T05:19:43;6.30;;;1.08;;
42590;SDS011;28218;53.342;-6.216;2024-01-15T05:22:12;9.23;;;2.22;;
42590;SDS011;28218;53.342;-6.216;2024-01-15T05:24:40;4.32;;;1.48;;
42590;SDS011;28218;53.342;-6.216;2024-01-15T05:27:08;9.00;;;1.45;;
42590;SDS011;28218;53.342;-6.216;2024-01-15T05:29:37;8.32;;;1.27;;
42590;SDS011;28218;53.342;-6.216;2024-01-15T05:32:05;6.50;;;1.25;;
42590;SDS011;28218;53.342;-6.216;2024-01-15T05:34:35;6.28;;;1.45;;
42590;SDS011;28218;53.342;-6.216;2024-01-15T05:37:06;6.30;;;1.48;;
42590;SDS011;28218;53.342;-6.216;2024-01-15T05:39:35;7.82;;;0.90;;
42590;SDS011;28218;53.342;-6.216;2024-01-15T05:42:03;4.68;;;1.63;;
42590;SDS011;28218;53.342;-6.216;2024-01-15T05:44:35;6.28;;;1.00;;
42590;SDS011;28218;53.342;-6.216;2024-01-15T05:47:04;5.10;;;1.17;;
42590;SDS011;28218;53.342;-6.216;2024-01-15T05:49:37;7.43;;;1.40;;
42590;SDS011;28218;53.342;-6.216;2024-01-15T05:52:08;9.73;;;1.10;;
42590;SDS011;28218;53.342;-6.216;2024-01-15T05:54:37;7.18;;;1.30;;
42590;SDS011;28218;53.342;-6.216;2024-01-15T05:57:05;8.20;;;1.70;;
42590;SDS011;28218;53.342;-6.216;2024-01-15T05:59:33;6.28;;;1.33;;
42590;SDS011;28218;53.342;-6.216;2024-01-15T06:02:03;4.72;;;1.25;;
42590;SDS011;28218;53.342;-6.216;2024-01-15T06:04:34;5.45;;;1.73;;
42590;SDS011;28218;53.342;-6.216;2024-01-15T06:07:04;4.32;;;1.02;;
42590;SDS011;28218;53.342;-6.216;2024-01-15T06:09:33;5.32;;;1.23;;
42590;SDS011;28218;53.342;-6.216;2024-01-15T06:12:01;3.75;;;1.00;;
42590;SDS011;28218;53.342;-6.216;2024-01-15T06:14:29;8.00;;;1.45;;
42590;SDS011;28218;53.342;-6.216;2024-01-15T06:16:58;7.25;;;1.33;;
42590;SDS011;28218;53.342;-6.216;2024-01-15T06:19:26;6.03;;;1.17;;
42590;SDS011;28218;53.342;-6.216;2024-01-15T06:21:56;5.03;;;1.20;;
42590;SDS011;28218;53.342;-6.216;2024-01-15T06:24:24;8.13;;;1.50;;
42590;SDS011;28218;53.342;-6.216;2024-01-15T06:26:53;2.88;;;1.20;;
42590;SDS011;28218;53.342;-6.216;2024-01-15T06:29:22;8.07;;;1.17;;
42590;SDS011;28218;53.342;-6.216;2024-01-15T06:31:53;3.38;;;1.63;;
42590;SDS011;28218;53.342;-6.216;2024-01-15T06:36:53;5.00;;;1.33;;
42590;SDS011;28218;53.342;-6.216;2024-01-15T06:39:22;3.40;;;1.05;;
42590;SDS011;28218;53.342;-6.216;2024-01-15T06:41:51;9.30;;;1.38;;
42590;SDS011;28218;53.342;-6.216;2024-01-15T06:44:19;5.25;;;1.40;;
42590;SDS011;28218;53.342;-6.216;2024-01-15T06:46:48;8.70;;;2.42;;
42590;SDS011;28218;53.342;-6.216;2024-01-15T06:49:18;10.32;;;1.65;;
42590;SDS011;28218;53.342;-6.216;2024-01-15T06:51:46;6.38;;;1.70;;
42590;SDS011;28218;53.342;-6.216;2024-01-15T06:54:15;11.63;;;1.77;;
42590;SDS011;28218;53.342;-6.216;2024-01-15T06:56:45;4.10;;;1.58;;
42590;SDS011;28218;53.342;-6.216;2024-01-15T06:59:13;9.93;;;1.48;;
42590;SDS011;28218;53.342;-6.216;2024-01-15T07:01:45;5.95;;;1.63;;
42590;SDS011;28218;53.342;-6.216;2024-01-15T07:04:14;5.32;;;1.30;;
42590;SDS011;28218;53.342;-6.216;2024-01-15T07:06:42;2.85;;;1.42;;
42590;SDS011;28218;53.342;-6.216;2024-01-15T07:09:11;7.82;;;1.30;;
42590;SDS011;28218;53.342;-6.216;2024-01-15T07:11:45;8.23;;;1.33;;
42590;SDS011;28218;53.342;-6.216;2024-01-15T07:14:14;5.07;;;1.50;;
42590;SDS011;28218;53.342;-6.216;2024-01-15T07:16:42;5.55;;;1.55;;
42590;SDS011;28218;53.342;-6.216;2024-01-15T07:19:14;5.00;;;1.58;;
42590;SDS011;28218;53.342;-6.216;2024-01-15T07:21:42;6.72;;;2.38;;
42590;SDS011;28218;53.342;-6.216;2024-01-15T07:24:10;3.38;;;1.30;;
42590;SDS011;28218;53.342;-6.216;2024-01-15T07:26:39;6.60;;;1.77;;
42590;SDS011;28218;53.342;-6.216;2024-01-15T07:29:09;5.20;;;1.40;;
42590;SDS011;28218;53.342;-6.216;2024-01-15T07:31:37;8.23;;;1.88;;
42590;SDS011;28218;53.342;-6.216;2024-01-15T07:34:05;8.93;;;2.10;;
42590;SDS011;28218;53.342;-6.216;2024-01-15T07:36:34;3.88;;;1.40;;
42590;SDS011;28218;53.342;-6.216;2024-01-15T07:39:02;6.90;;;1.80;;
42590;SDS011;28218;53.342;-6.216;2024-01-15T07:41:31;6.30;;;1.40;;
42590;SDS011;28218;53.342;-6.216;2024-01-15T07:43:59;5.30;;;1.65;;
42590;SDS011;28218;53.342;-6.216;2024-01-15T07:46:29;3.22;;;1.33;;
42590;SDS011;28218;53.342;-6.216;2024-01-15T07:48:57;5.72;;;1.48;;
42590;SDS011;28218;53.342;-6.216;2024-01-15T07:51:26;5.85;;;1.27;;
42590;SDS011;28218;53.342;-6.216;2024-01-15T07:53:54;8.65;;;1.52;;
42590;SDS011;28218;53.342;-6.216;2024-01-15T07:56:23;5.25;;;1.67;;
42590;SDS011;28218;53.342;-6.216;2024-01-15T07:58:51;16.73;;;3.33;;
42590;SDS011;28218;53.342;-6.216;2024-01-15T08:01:19;6.03;;;1.98;;
42590;SDS011;28218;53.342;-6.216;2024-01-15T08:03:49;15.45;;;2.38;;
42590;SDS011;28218;53.342;-6.216;2024-01-15T08:06:18;6.05;;;1.67;;
42590;SDS011;28218;53.342;-6.216;2024-01-15T08:08:47;5.72;;;1.42;;
42590;SDS011;28218;53.342;-6.216;2024-01-15T08:11:16;6.47;;;1.50;;
42590;SDS011;28218;53.342;-6.216;2024-01-15T08:13:44;7.53;;;1.85;;
42590;SDS011;28218;53.342;-6.216;2024-01-15T08:16:12;5.25;;;1.70;;
42590;SDS011;28218;53.342;-6.216;2024-01-15T08:18:41;4.90;;;1.42;;
42590;SDS011;28218;53.342;-6.216;2024-01-15T08:21:12;7.40;;;1.65;;
42590;SDS011;28218;53.342;-6.216;2024-01-15T08:23:41;5.00;;;1.55;;
42590;SDS011;28218;53.342;-6.216;2024-01-15T08:26:10;6.05;;;1.33;;
42590;SDS011;28218;53.342;-6.216;2024-01-15T08:28:38;6.55;;;2.05;;
42590;SDS011;28218;53.342;-6.216;2024-01-15T08:31:06;5.03;;;1.30;;
42590;SDS011;28218;53.342;-6.216;2024-01-15T08:33:36;6.43;;;1.52;;
42590;SDS011;28218;53.342;-6.216;2024-01-15T08:36:04;8.38;;;1.85;;
42590;SDS011;28218;53.342;-6.216;2024-01-15T08:38:34;7.25;;;1.88;;
42590;SDS011;28218;53.342;-6.216;2024-01-15T08:41:03;4.78;;;2.03;;
42590;SDS011;28218;53.342;-6.216;2024-01-15T08:43:31;9.82;;;2.00;;
42590;SDS011;28218;53.342;-6.216;2024-01-15T08:46:00;4.22;;;1.50;;
42590;SDS011;28218;53.342;-6.216;2024-01-15T08:48:28;10.55;;;2.10;;
42590;SDS011;28218;53.342;-6.216;2024-01-15T08:50:57;8.07;;;1.58;;
42590;SDS011;28218;53.342;-6.216;2024-01-15T08:53:25;7.45;;;1.50;;
42590;SDS011;28218;53.342;-6.216;2024-01-15T08:55:55;6.28;;;1.80;;
42590;SDS011;28218;53.342;-6.216;2024-01-15T08:58:23;2.55;;;1.42;;
42590;SDS011;28218;53.342;-6.216;2024-01-15T09:00:51;6.57;;;1.80;;
42590;SDS011;28218;53.342;-6.216;2024-01-15T09:03:20;11.85;;;2.13;;
42590;SDS011;28218;53.342;-6.216;2024-01-15T09:05:48;8.20;;;1.90;;
42590;SDS011;28218;53.342;-6.216;2024-01-15T09:08:17;6.78;;;1.92;;
42590;SDS011;28218;53.342;-6.216;2024-01-15T09:10:46;6.93;;;1.67;;
42590;SDS011;28218;53.342;-6.216;2024-01-15T09:13:15;6.10;;;2.90;;
42590;SDS011;28218;53.342;-6.216;2024-01-15T09:15:44;8.43;;;2.47;;
42590;SDS011;28218;53.342;-6.216;2024-01-15T09:18:12;10.50;;;2.90;;
42590;SDS011;28218;53.342;-6.216;2024-01-15T09:20:40;8.80;;;2.45;;
42590;SDS011;28218;53.342;-6.216;2024-01-15T09:23:09;12.32;;;2.33;;
42590;SDS011;28218;53.342;-6.216;2024-01-15T09:25:37;8.68;;;2.50;;
42590;SDS011;28218;53.342;-6.216;2024-01-15T09:28:05;7.68;;;2.80;;
42590;SDS011;28218;53.342;-6.216;2024-01-15T09:30:36;7.53;;;2.55;;
42590;SDS011;28218;53.342;-6.216;2024-01-15T09:33:04;9.75;;;2.78;;
42590;SDS011;28218;53.342;-6.216;2024-01-15T09:35:32;14.57;;;3.38;;
42590;SDS011;28218;53.342;-6.216;2024-01-15T09:38:01;6.90;;;2.67;;
42590;SDS011;28218;53.342;-6.216;2024-01-15T09:40:30;10.18;;;2.40;;
42590;SDS011;28218;53.342;-6.216;2024-01-15T09:43:00;5.75;;;2.55;;
42590;SDS011;28218;53.342;-6.216;2024-01-15T09:45:30;13.82;;;2.45;;
42590;SDS011;28218;53.342;-6.216;2024-01-15T09:48:00;5.93;;;1.90;;
42590;SDS011;28218;53.342;-6.216;2024-01-15T09:50:28;6.72;;;2.08;;
42590;SDS011;28218;53.342;-6.216;2024-01-15T09:52:57;8.68;;;2.05;;
42590;SDS011;28218;53.342;-6.216;2024-01-15T09:55:25;7.32;;;2.60;;
42590;SDS011;28218;53.342;-6.216;2024-01-15T09:57:55;8.25;;;2.10;;
42590;SDS011;28218;53.342;-6.216;2024-01-15T10:00:24;10.18;;;2.10;;
42590;SDS011;28218;53.342;-6.216;2024-01-15T10:02:54;9.75;;;2.10;;
42590;SDS011;28218;53.342;-6.216;2024-01-15T10:05:24;8.30;;;2.55;;
42590;SDS011;28218;53.342;-6.216;2024-01-15T10:07:53;10.00;;;2.13;;
42590;SDS011;28218;53.342;-6.216;2024-01-15T10:10:24;7.00;;;2.33;;
42590;SDS011;28218;53.342;-6.216;2024-01-15T10:12:52;6.90;;;2.58;;
42590;SDS011;28218;53.342;-6.216;2024-01-15T10:15:22;8.23;;;2.05;;
42590;SDS011;28218;53.342;-6.216;2024-01-15T10:17:53;11.05;;;2.17;;
42590;SDS011;28218;53.342;-6.216;2024-01-15T10:20:21;5.40;;;1.80;;
42590;SDS011;28218;53.342;-6.216;2024-01-15T10:22:51;7.70;;;1.77;;
42590;SDS011;28218;53.342;-6.216;2024-01-15T10:25:20;12.80;;;2.40;;
42590;SDS011;28218;53.342;-6.216;2024-01-15T10:28:02;8.43;;;2.05;;
42590;SDS011;28218;53.342;-6.216;2024-01-15T10:30:31;6.47;;;2.10;;
42590;SDS011;28218;53.342;-6.216;2024-01-15T10:33:01;7.15;;;1.83;;
42590;SDS011;28218;53.342;-6.216;2024-01-15T10:38:02;7.88;;;1.98;;
42590;SDS011;28218;53.342;-6.216;2024-01-15T10:40:31;5.43;;;2.88;;
42590;SDS011;28218;53.342;-6.216;2024-01-15T10:43:00;13.30;;;5.32;;
42590;SDS011;28218;53.342;-6.216;2024-01-15T10:45:29;8.77;;;2.90;;
42590;SDS011;28218;53.342;-6.216;2024-01-15T10:47:58;6.03;;;2.67;;
42590;SDS011;28218;53.342;-6.216;2024-01-15T10:52:57;9.48;;;3.08;;
42590;SDS011;28218;53.342;-6.216;2024-01-15T10:55:27;11.05;;;3.78;;
42590;SDS011;28218;53.342;-6.216;2024-01-15T10:57:57;9.68;;;3.45;;
42590;SDS011;28218;53.342;-6.216;2024-01-15T11:00:25;7.75;;;2.97;;
42590;SDS011;28218;53.342;-6.216;2024-01-15T11:02:55;8.52;;;2.80;;
42590;SDS011;28218;53.342;-6.216;2024-01-15T11:05:24;4.68;;;2.15;;
42590;SDS011;28218;53.342;-6.216;2024-01-15T11:07:54;12.35;;;3.95;;
42590;SDS011;28218;53.342;-6.216;2024-01-15T11:10:40;6.90;;;2.28;;
42590;SDS011;28218;53.342;-6.216;2024-01-15T11:13:10;6.82;;;2.38;;
42590;SDS011;28218;53.342;-6.216;2024-01-15T11:15:57;9.98;;;3.60;;
42590;SDS011;28218;53.342;-6.216;2024-01-15T11:18:27;11.80;;;4.90;;
42590;SDS011;28218;53.342;-6.216;2024-01-15T11:23:54;10.95;;;5.38;;
42590;SDS011;28218;53.342;-6.216;2024-01-15T11:26:30;11.60;;;3.50;;
42590;SDS011;28218;53.342;-6.216;2024-01-15T11:28:59;9.88;;;2.60;;
42590;SDS011;28218;53.342;-6.216;2024-01-15T11:31:29;9.27;;;2.60;;
42590;SDS011;28218;53.342;-6.216;2024-01-15T11:34:18;12.43;;;3.17;;
42590;SDS011;28218;53.342;-6.216;2024-01-15T11:37:00;7.65;;;1.67;;
42590;SDS011;28218;53.342;-6.216;2024-01-15T11:39:39;14.35;;;2.20;;
42590;SDS011;28218;53.342;-6.216;2024-01-15T11:42:09;6.75;;;2.17;;
42590;SDS011;28218;53.342;-6.216;2024-01-15T11:44:38;7.43;;;1.98;;
42590;SDS011;28218;53.342;-6.216;2024-01-15T11:47:07;7.93;;;2.60;;
42590;SDS011;28218;53.342;-6.216;2024-01-15T11:49:52;10.93;;;2.42;;
42590;SDS011;28218;53.342;-6.216;2024-01-15T11:52:31;11.95;;;2.92;;
42590;SDS011;28218;53.342;-6.216;2024-01-15T11:55:02;14.73;;;7.03;;
42590;SDS011;28218;53.342;-6.216;2024-01-15T11:57:44;18.50;;;5.10;;
42590;SDS011;28218;53.342;-6.216;2024-01-15T12:00:14;28.67;;;4.78;;
42590;SDS011;28218;53.342;-6.216;2024-01-15T12:02:43;11.30;;;2.10;;
42590;SDS011;28218;53.342;-6.216;2024-01-15T12:05:13;6.13;;;2.25;;
42590;SDS011;28218;53.342;-6.216;2024-01-15T12:07:44;12.27;;;2.47;;
42590;SDS011;28218;53.342;-6.216;2024-01-15T12:10:14;9.15;;;4.63;;
42590;SDS011;28218;53.342;-6.216;2024-01-15T12:15:19;13.88;;;2.97;;
42590;SDS011;28218;53.342;-6.216;2024-01-15T12:17:47;9.25;;;3.00;;
42590;SDS011;28218;53.342;-6.216;2024-01-15T12:20:17;7.65;;;2.40;;
42590;SDS011;28218;53.342;-6.216;2024-01-15T12:22:45;6.18;;;2.70;;
42590;SDS011;28218;53.342;-6.216;2024-01-15T12:25:26;7.75;;;2.35;;
42590;SDS011;28218;53.342;-6.216;2024-01-15T12:27:58;7.82;;;3.53;;
42590;SDS011;28218;53.342;-6.216;2024-01-15T12:30:26;11.45;;;3.28;;
42590;SDS011;28218;53.342;-6.216;2024-01-15T12:32:55;12.10;;;3.35;;
42590;SDS011;28218;53.342;-6.216;2024-01-15T12:35:24;15.02;;;3.05;;
42590;SDS011;28218;53.342;-6.216;2024-01-15T12:37:54;7.35;;;2.53;;
42590;SDS011;28218;53.342;-6.216;2024-01-15T12:40:22;4.80;;;1.83;;
42590;SDS011;28218;53.342;-6.216;2024-01-15T12:42:51;7.55;;;2.17;;
42590;SDS011;28218;53.342;-6.216;2024-01-15T12:45:22;9.15;;;2.85;;
42590;SDS011;28218;53.342;-6.216;2024-01-15T12:47:52;6.68;;;2.33;;
42590;SDS011;28218;53.342;-6.216;2024-01-15T12:50:25;9.57;;;2.42;;
42590;SDS011;28218;53.342;-6.216;2024-01-15T12:52:54;10.50;;;3.25;;
42590;SDS011;28218;53.342;-6.216;2024-01-15T12:55:22;7.90;;;2.50;;
42590;SDS011;28218;53.342;-6.216;2024-01-15T12:57:50;17.40;;;4.43;;
42590;SDS011;28218;53.342;-6.216;2024-01-15T13:00:23;14.40;;;5.75;;
42590;SDS011;28218;53.342;-6.216;2024-01-15T13:02:53;21.35;;;5.10;;
42590;SDS011;28218;53.342;-6.216;2024-01-15T13:05:22;23.23;;;8.35;;
42590;SDS011;28218;53.342;-6.216;2024-01-15T13:07:51;18.30;;;6.50;;
42590;SDS011;28218;53.342;-6.216;2024-01-15T13:10:20;7.85;;;3.10;;
42590;SDS011;28218;53.342;-6.216;2024-01-15T13:15:19;8.00;;;2.97;;
42590;SDS011;28218;53.342;-6.216;2024-01-15T13:17:49;6.38;;;2.30;;
42590;SDS011;28218;53.342;-6.216;2024-01-15T13:20:17;12.27;;;2.72;;
42590;SDS011;28218;53.342;-6.216;2024-01-15T13:22:45;11.00;;;3.15;;
42590;SDS011;28218;53.342;-6.216;2024-01-15T13:25:14;13.98;;;4.45;;
42590;SDS011;28218;53.342;-6.216;2024-01-15T13:27:42;14.82;;;3.20;;
42590;SDS011;28218;53.342;-6.216;2024-01-15T13:30:11;11.93;;;2.80;;
42590;SDS011;28218;53.342;-6.216;2024-01-15T13:32:41;13.02;;;2.75;;
42590;SDS011;28218;53.342;-6.216;2024-01-15T13:35:10;12.90;;;2.95;;
42590;SDS011;28218;53.342;-6.216;2024-01-15T13:37:40;14.15;;;5.20;;
42590;SDS011;28218;53.342;-6.216;2024-01-15T13:40:09;13.32;;;4.95;;
42590;SDS011;28218;53.342;-6.216;2024-01-15T13:42:43;19.92;;;5.88;;
42590;SDS011;28218;53.342;-6.216;2024-01-15T13:45:14;18.90;;;4.10;;
42590;SDS011;28218;53.342;-6.216;2024-01-15T13:47:42;19.85;;;3.72;;
42590;SDS011;28218;53.342;-6.216;2024-01-15T13:50:12;19.02;;;3.17;;
42590;SDS011;28218;53.342;-6.216;2024-01-15T13:52:41;23.60;;;2.95;;
42590;SDS011;28218;53.342;-6.216;2024-01-15T13:55:09;10.50;;;2.03;;
42590;SDS011;28218;53.342;-6.216;2024-01-15T13:57:37;16.85;;;1.90;;
42590;SDS011;28218;53.342;-6.216;2024-01-15T14:00:06;9.82;;;2.75;;
42590;SDS011;28218;53.342;-6.216;2024-01-15T14:02:39;16.45;;;4.47;;
42590;SDS011;28218;53.342;-6.216;2024-01-15T14:05:08;21.02;;;3.40;;
42590;SDS011;28218;53.342;-6.216;2024-01-15T14:10:09;10.73;;;2.63;;
42590;SDS011;28218;53.342;-6.216;2024-01-15T14:12:38;34.47;;;4.90;;
42590;SDS011;28218;53.342;-6.216;2024-01-15T14:15:08;15.07;;;2.70;;
42590;SDS011;28218;53.342;-6.216;2024-01-15T14:17:37;14.07;;;3.58;;
42590;SDS011;28218;53.342;-6.216;2024-01-15T14:20:06;7.22;;;3.00;;
42590;SDS011;28218;53.342;-6.216;2024-01-15T14:22:36;20.58;;;3.20;;
42590;SDS011;28218;53.342;-6.216;2024-01-15T14:25:06;12.05;;;1.85;;
42590;SDS011;28218;53.342;-6.216;2024-01-15T14:27:36;11.50;;;1.95;;
42590;SDS011;28218;53.342;-6.216;2024-01-15T14:30:04;8.88;;;1.92;;
42590;SDS011;28218;53.342;-6.216;2024-01-15T14:32:35;10.88;;;2.38;;
42590;SDS011;28218;53.342;-6.216;2024-01-15T14:35:04;12.02;;;2.20;;
42590;SDS011;28218;53.342;-6.216;2024-01-15T14:37:32;15.40;;;2.90;;
42590;SDS011;28218;53.342;-6.216;2024-01-15T14:40:00;9.55;;;2.45;;
42590;SDS011;28218;53.342;-6.216;2024-01-15T14:42:30;4.88;;;2.10;;
42590;SDS011;28218;53.342;-6.216;2024-01-15T14:44:59;10.13;;;2.53;;
42590;SDS011;28218;53.342;-6.216;2024-01-15T14:47:28;13.00;;;2.08;;
42590;SDS011;28218;53.342;-6.216;2024-01-15T14:49:56;19.75;;;3.25;;
42590;SDS011;28218;53.342;-6.216;2024-01-15T14:52:24;7.85;;;2.92;;
42590;SDS011;28218;53.342;-6.216;2024-01-15T14:54:52;8.10;;;3.83;;
42590;SDS011;28218;53.342;-6.216;2024-01-15T14:57:21;9.88;;;2.15;;
42590;SDS011;28218;53.342;-6.216;2024-01-15T14:59:50;7.88;;;2.28;;
42590;SDS011;28218;53.342;-6.216;2024-01-15T15:02:19;7.75;;;2.58;;